CYVRCYHE

Guest
Details From CYVR - Vancouver Intl
To CYHE - Hope
Flight Number -
Tags Generated
Created
Modified
Stats Distance 68 nm / 126 km
Max Altitude 0 ft / 0 m
Waypoints 2
Social Downloads 0
Likes 0
Share VATSIM

Download

Looking for another format? Having issues loading an existing format? Contact us
Advertisement - Login to hide

Notes

Generated

Route

CYVR CYHE

ID Type Via Altitude Latitude Longitude Leg Dist Tot Dist Heading (true) Name
O CYVR APT - 0 ft / 0 m 49.20509˚ -123.20131˚ - 0 nm - -
O CYHE APT - 0 ft / 0 m 49.36943˚ -121.48293˚ 68 nm 68 nm 81° / 82° Hope

Altitude Profile

Advertisement - Login to hide

CYVR

Details ICAO CYVR (YVR)
Name Vancouver Intl
Region Canada
Timezone America/Vancouver (UTC-7.0)
Stats Elevation 14 ft / 4 m (AMSL)
Location 49.192331° -123.187993°
Runways 4
Magnetic Variation 16.196° E

METAR

CYVR 280300Z 14010KT 30SM SKC 19/08 A3012 RMK SLP201 DENSITY ALT 300FT

Decode

TAF

TAF CYVR 280238Z 2803/2906 16008KT P6SM SKC BECMG 2803/2805 10010KT FM281200 10010KT P6SM FEW025 SCT080 BECMG 2820/2822 25010KT FM290000 28012KT P6SM BKN060 RMK NXT FCST BY 280600Z

Decode

Departure Runways

ID Width Length Bearing (true) Bearing (mag) Surface Threshold Offset Overrun Length
08 75 ft / 23 m 3,497 ft / 1,066 m 100.01° 83.81° Concrete 0 ft / 0 m 0 ft / 0 m
08L 200 ft / 61 m 9,910 ft / 3,021 m 99.80° 83.60° Concrete 0 ft / 0 m 0 ft / 0 m
08R 200 ft / 61 m 11,491 ft / 3,502 m 99.94° 83.74° Asphalt 0 ft / 0 m 0 ft / 0 m
12 200 ft / 61 m 7,291 ft / 2,222 m 141.91° 125.71° Asphalt 0 ft / 0 m 0 ft / 0 m
26 75 ft / 23 m 3,497 ft / 1,066 m 280.02° 263.82° Concrete 0 ft / 0 m 0 ft / 0 m
26L 200 ft / 61 m 11,491 ft / 3,502 m 279.97° 263.77° Asphalt 0 ft / 0 m 0 ft / 0 m
26R 200 ft / 61 m 9,910 ft / 3,021 m 279.83° 263.63° Concrete 0 ft / 0 m 0 ft / 0 m
30 200 ft / 61 m 7,291 ft / 2,222 m 321.93° 305.73° Asphalt 0 ft / 0 m 0 ft / 0 m

CYHE

Details ICAO CYHE
Name Hope
Region Canada
Timezone America/Vancouver (UTC-7.0)
Stats Elevation 128 ft / 39 m (AMSL)
Location 49.366699° -121.483299°
Runways 2
Magnetic Variation 15.917° E

METAR

CYHE 280300Z AUTO 29008KT 250V330 9SM CLR 21/07 A3009 RMK SLP190 DENSITY ALT 600FT

Decode

TAF

Not found

Destination Runways

ID Width Length Bearing (true) Bearing (mag) Surface Threshold Offset Overrun Length
07 250 ft / 76 m 3,964 ft / 1,208 m 89.99° 74.07° Grass 0 ft / 0 m 0 ft / 0 m
16 65 ft / 20 m 2,002 ft / 610 m 185.00° 169.08° Gravel 0 ft / 0 m 0 ft / 0 m
25 250 ft / 76 m 3,964 ft / 1,208 m 270.01° 254.09° Grass 0 ft / 0 m 0 ft / 0 m
34 65 ft / 20 m 2,002 ft / 610 m 5.00° 349.08° Gravel 0 ft / 0 m 0 ft / 0 m

Popular Alternatives